createdAt,value
2022-12-18T00:03:37.037Z,100578.28
2022-12-18T00:06:04.310Z,100584.47
2022-12-18T00:08:31.098Z,100589.75
2022-12-18T00:11:07.074Z,100587.28
2022-12-18T00:13:34.400Z,100596.88
2022-12-18T00:16:10.492Z,100595.19
2022-12-18T00:18:38.195Z,100599.56
2022-12-18T00:21:08.078Z,100593.59
2022-12-18T00:23:36.682Z,100587.66
2022-12-18T00:26:06.881Z,100603.28
2022-12-18T00:28:34.339Z,100594.75
2022-12-18T00:31:06.674Z,100585.22
2022-12-18T00:33:34.478Z,100610.38
2022-12-18T00:36:09.222Z,100610.47
2022-12-18T00:38:36.557Z,100615.94
2022-12-18T00:41:03.831Z,100608.97
2022-12-18T00:43:30.706Z,100622.91
2022-12-18T00:45:57.510Z,100609.91
2022-12-18T00:48:24.281Z,100625.63
2022-12-18T00:50:52.111Z,100622.09
2022-12-18T00:53:19.449Z,100621.25
2022-12-18T00:55:47.192Z,100635.25
2022-12-18T00:58:15.914Z,100629.19
2022-12-18T01:00:43.769Z,100638.78
2022-12-18T01:03:10.979Z,100627.56
2022-12-18T01:05:41.242Z,100629.34
2022-12-18T01:08:07.986Z,100632.09
2022-12-18T01:10:34.717Z,100630.38
2022-12-18T01:13:01.486Z,100633.91
2022-12-18T01:15:28.235Z,100643.47
2022-12-18T01:17:54.994Z,100642.69
2022-12-18T01:20:21.960Z,100645.38
2022-12-18T01:22:48.739Z,100609.03
2022-12-18T01:25:15.481Z,100647.16
2022-12-18T01:27:42.313Z,100607.31
2022-12-18T01:30:09.482Z,100667.16
2022-12-18T01:32:36.206Z,100670.75
2022-12-18T01:35:03.148Z,100681.28
2022-12-18T01:37:30.025Z,100611.84
2022-12-18T01:39:56.753Z,100671.75
2022-12-18T01:42:23.537Z,100664.88
2022-12-18T01:45:05.381Z,100679.66
2022-12-18T01:47:55.558Z,100670.97
2022-12-18T01:50:25.159Z,100684.09
2022-12-18T01:52:57.954Z,100681.53
2022-12-18T01:55:30.736Z,100685.94
2022-12-18T01:57:59.793Z,100682.50
2022-12-18T02:00:27.951Z,100681.66
2022-12-18T02:02:56.703Z,100693.88
2022-12-18T02:05:35.710Z,100676.59
2022-12-18T02:08:13.387Z,100689.59
2022-12-18T02:10:53.438Z,100688.78
2022-12-18T02:13:29.639Z,100689.63
2022-12-18T02:16:51.180Z,100683.59
2022-12-18T02:19:53.743Z,100681.91
2022-12-18T02:22:34.444Z,100677.59
2022-12-18T02:25:27.255Z,100674.09
2022-12-18T02:27:55.765Z,100693.25
2022-12-18T02:30:23.638Z,100690.69
2022-12-18T02:32:54.002Z,100699.31
2022-12-18T02:35:25.269Z,100700.25
2022-12-18T02:37:52.322Z,100647.31
2022-12-18T02:40:21.142Z,100700.34
2022-12-18T02:42:48.083Z,100643.03
2022-12-18T02:45:14.851Z,100695.09
2022-12-18T02:47:45.376Z,100650.78
2022-12-18T02:50:12.089Z,100698.59
2022-12-18T02:52:53.998Z,100696.00
2022-12-18T02:55:51.632Z,100706.44
2022-12-18T02:58:52.893Z,100705.59
2022-12-18T03:01:30.608Z,100702.16
2022-12-18T03:04:16.258Z,100710.00
2022-12-18T03:06:48.945Z,100705.66
2022-12-18T03:09:47.506Z,100704.84
2022-12-18T03:12:26.166Z,100703.09
2022-12-18T03:15:17.304Z,100675.25
2022-12-18T03:17:50.070Z,100706.59
2022-12-18T03:20:21.074Z,100690.94
2022-12-18T03:22:53.147Z,100683.97
2022-12-18T03:25:20.932Z,100688.34
2022-12-18T03:27:52.549Z,100697.03
2022-12-18T03:30:19.729Z,100704.00
2022-12-18T03:33:12.204Z,100700.59
2022-12-18T03:35:42.833Z,100713.66
2022-12-18T03:38:11.280Z,100721.47
2022-12-18T03:41:06.997Z,100663.28
2022-12-18T03:43:37.112Z,100729.31
2022-12-18T03:46:09.386Z,100723.22
2022-12-18T03:48:52.878Z,100721.50
2022-12-18T03:51:29.448Z,100736.28
2022-12-18T03:54:02.768Z,100725.00
2022-12-18T03:56:38.439Z,100733.69
2022-12-18T03:59:06.543Z,100730.22
2022-12-18T04:01:36.933Z,100711.97
2022-12-18T04:04:04.828Z,100725.00
2022-12-18T04:06:33.174Z,100726.75
2022-12-18T04:09:00.415Z,100733.72
2022-12-18T04:11:27.240Z,100729.34
2022-12-18T04:13:58.606Z,100732.84
2022-12-18T04:16:26.777Z,100738.94
2022-12-18T04:18:54.257Z,100735.44
2022-12-18T04:21:21.670Z,100740.66
2022-12-18T04:23:48.437Z,100745.94
2022-12-18T04:26:15.369Z,100752.00
2022-12-18T04:28:42.058Z,100743.28
2022-12-18T04:31:08.801Z,100747.63
2022-12-18T04:33:35.555Z,100730.22
2022-12-18T04:36:02.450Z,100758.06
2022-12-18T04:38:29.209Z,100716.28
2022-12-18T04:40:55.983Z,100753.72
2022-12-18T04:43:22.928Z,100765.00
2022-12-18T04:45:49.691Z,100763.25
2022-12-18T04:48:17.082Z,100770.19
2022-12-18T04:50:43.833Z,100755.41
2022-12-18T04:53:10.607Z,100744.94
2022-12-18T04:55:37.521Z,100784.03
2022-12-18T04:58:04.301Z,100782.28
2022-12-18T05:00:31.093Z,100749.22
2022-12-18T05:02:57.882Z,100783.13
2022-12-18T05:05:24.722Z,100756.97
2022-12-18T05:07:51.398Z,100776.94
2022-12-18T05:10:18.159Z,100783.94
2022-12-18T05:13:01.891Z,100802.16
2022-12-18T05:15:31.382Z,100813.44
2022-12-18T05:17:59.420Z,100803.91
2022-12-18T05:20:27.146Z,100813.47
2022-12-18T05:22:55.179Z,100809.16
2022-12-18T05:25:23.166Z,100811.75
2022-12-18T05:27:49.909Z,100788.22
2022-12-18T05:30:17.503Z,100816.97
2022-12-18T05:32:44.503Z,100814.31
2022-12-18T05:35:12.153Z,100785.56
2022-12-18T05:37:42.994Z,100792.56
2022-12-18T05:40:10.593Z,100803.00
2022-12-18T05:42:37.326Z,100780.34
2022-12-18T05:45:04.671Z,100820.47
2022-12-18T05:47:31.493Z,100810.81
2022-12-18T05:49:58.399Z,100782.97
2022-12-18T05:52:25.592Z,100811.66
2022-12-18T05:54:52.377Z,100828.19
2022-12-18T05:57:19.233Z,100803.81
2022-12-18T05:59:45.983Z,100826.41
2022-12-18T06:02:12.914Z,100823.78
2022-12-18T06:04:39.738Z,100823.69
2022-12-18T06:07:06.551Z,100838.50
2022-12-18T06:09:33.434Z,100834.13
2022-12-18T06:12:00.495Z,100847.25
2022-12-18T06:14:27.293Z,100839.41
2022-12-18T06:16:54.143Z,100833.28
2022-12-18T06:19:21.031Z,100840.22
2022-12-18T06:21:48.250Z,100844.63
2022-12-18T06:24:14.948Z,100840.25
2022-12-18T06:26:41.757Z,100835.00
2022-12-18T06:29:08.589Z,100849.00
2022-12-18T06:31:35.633Z,100832.38
2022-12-18T06:34:06.014Z,100843.69
2022-12-18T06:36:33.039Z,100839.31
2022-12-18T06:39:00.431Z,100859.31
2022-12-18T06:41:27.352Z,100844.50
2022-12-18T06:43:59.351Z,100847.06
2022-12-18T06:46:26.405Z,100853.13
2022-12-18T06:48:53.126Z,100867.06
2022-12-18T06:51:24.906Z,100864.44
2022-12-18T06:53:51.726Z,100848.78
2022-12-18T06:56:18.471Z,100851.41
2022-12-18T06:58:45.493Z,100867.91
2022-12-18T07:01:13.586Z,100872.28
2022-12-18T07:03:42.381Z,100877.44
2022-12-18T07:06:17.439Z,100874.81
2022-12-18T07:08:44.819Z,100886.13
2022-12-18T07:11:11.758Z,100861.72
2022-12-18T07:13:38.943Z,100887.81
2022-12-18T07:16:12.475Z,100886.97
2022-12-18T07:18:43.341Z,100875.69
2022-12-18T07:21:12.390Z,100895.69
2022-12-18T07:23:39.861Z,100895.63
2022-12-18T07:26:14.771Z,100915.69
2022-12-18T07:28:43.099Z,100911.41
2022-12-18T07:31:16.092Z,100924.47
2022-12-18T07:33:43.416Z,100912.25
2022-12-18T07:36:11.214Z,100904.38
2022-12-18T07:38:38.473Z,100938.38
2022-12-18T07:41:13.552Z,100933.22
2022-12-18T07:43:41.938Z,100928.81
2022-12-18T07:46:10.491Z,100925.31
2022-12-18T07:48:42.114Z,100941.88
2022-12-18T07:51:09.806Z,100912.22
2022-12-18T07:53:37.432Z,100947.19
2022-12-18T07:58:54.818Z,100917.50
2022-12-18T08:01:21.810Z,100939.38
2022-12-18T08:03:48.733Z,100932.31
2022-12-18T08:06:16.934Z,100936.75
2022-12-18T08:08:44.734Z,100928.91
2022-12-18T08:11:11.505Z,100931.50
2022-12-18T08:13:38.703Z,100900.19
2022-12-18T08:16:08.385Z,100925.41
2022-12-18T08:18:38.896Z,100929.78
2022-12-18T08:21:29.718Z,100900.91
2022-12-18T08:24:01.467Z,100910.56
2022-12-18T08:26:32.543Z,100936.66
2022-12-18T08:29:00.688Z,100936.66
2022-12-18T08:31:29.398Z,100927.00
2022-12-18T08:33:57.864Z,100926.28
2022-12-18T08:36:25.726Z,100941.03
2022-12-18T08:38:54.107Z,100939.28
2022-12-18T08:41:21.280Z,100944.53
2022-12-18T08:44:07.621Z,100942.00
2022-12-18T08:46:43.117Z,100931.50
2022-12-18T08:49:11.313Z,100933.31
2022-12-18T08:51:38.397Z,100925.47
2022-12-18T08:54:06.470Z,100945.53
2022-12-18T08:56:34.392Z,100956.94
2022-12-18T08:59:01.432Z,100936.06
2022-12-18T09:01:28.537Z,100934.31
2022-12-18T09:03:55.359Z,100956.06
2022-12-18T09:06:24.023Z,100949.13
2022-12-18T09:08:50.823Z,100946.53
2022-12-18T09:11:25.849Z,100955.31
2022-12-18T09:13:53.578Z,100962.31
2022-12-18T09:16:30.297Z,100964.91
2022-12-18T09:19:02.064Z,100943.19
2022-12-18T09:21:33.058Z,100944.97
2022-12-18T09:24:02.802Z,100945.81
2022-12-18T09:26:29.619Z,100940.59
2022-12-18T09:28:57.075Z,100944.16
2022-12-18T09:31:25.742Z,100930.28
2022-12-18T09:33:52.692Z,100941.59
2022-12-18T09:36:19.905Z,100946.84
2022-12-18T09:38:48.429Z,100926.81
2022-12-18T09:41:40.355Z,100939.03
2022-12-18T09:44:37.748Z,100936.41
2022-12-18T09:47:19.647Z,100940.78
2022-12-18T09:49:49.772Z,100935.59
2022-12-18T09:52:20.665Z,100943.47
2022-12-18T09:55:02.701Z,100939.97
2022-12-18T09:57:34.406Z,100926.78
2022-12-18T10:00:16.174Z,100923.16
2022-12-18T10:02:43.074Z,100909.97
2022-12-18T10:05:20.021Z,100908.97
2022-12-18T10:07:46.799Z,100903.56
2022-12-18T10:10:53.395Z,100891.13
2022-12-18T10:13:24.247Z,100889.25
2022-12-18T10:16:22.666Z,100900.28
2022-12-18T10:19:22.417Z,100899.34
2022-12-18T10:22:10.806Z,100897.50
2022-12-18T10:24:55.809Z,100898.25
2022-12-18T10:27:26.860Z,100892.97
2022-12-18T10:29:55.184Z,100893.81
2022-12-18T10:32:32.745Z,100885.88
2022-12-18T10:35:00.656Z,100897.22
2022-12-18T10:37:30.153Z,100898.16
2022-12-18T10:40:10.112Z,100898.97
2022-12-18T10:42:36.934Z,100891.06
2022-12-18T10:45:14.316Z,100889.94
2022-12-18T10:47:49.478Z,100882.06
2022-12-18T10:51:01.423Z,100872.47
2022-12-18T10:53:28.833Z,100883.69
2022-12-18T10:55:59.401Z,100881.91
2022-12-18T10:58:29.113Z,100880.13
2022-12-18T11:01:21.297Z,100866.78
2022-12-18T11:04:02.898Z,100853.53
2022-12-18T11:06:30.721Z,100869.94
2022-12-18T11:09:13.197Z,100859.31
2022-12-18T11:11:42.053Z,100858.31
2022-12-18T11:14:30.061Z,100856.44
2022-12-18T11:19:53.272Z,100840.53
2022-12-18T11:22:25.499Z,100839.72
2022-12-18T11:25:30.317Z,100843.25
2022-12-18T11:27:50.554Z,100836.28
2022-12-18T11:30:25.372Z,100823.94
2022-12-18T11:33:00.385Z,100831.00
2022-12-18T11:35:37.191Z,100825.84
2022-12-18T11:38:13.975Z,100837.09
2022-12-18T11:40:45.215Z,100841.41
2022-12-18T11:43:36.851Z,100837.00
2022-12-18T11:46:20.148Z,100829.41
2022-12-18T11:48:59.982Z,100838.28
2022-12-18T11:51:36.504Z,100840.94
2022-12-18T11:54:17.380Z,100844.38
2022-12-18T11:56:49.235Z,100836.84
2022-12-18T11:59:49.054Z,100843.72
2022-12-18T12:02:34.697Z,100844.78
2022-12-18T12:05:04.562Z,100834.16
2022-12-18T12:07:52.634Z,100841.34
2022-12-18T12:10:31.968Z,100783.25
2022-12-18T12:13:39.415Z,100784.97
2022-12-18T12:16:25.606Z,100851.13
2022-12-18T12:19:16.773Z,100840.78
2022-12-18T12:22:25.086Z,100850.34
2022-12-18T12:25:17.255Z,100831.13
2022-12-18T12:28:00.047Z,100836.16
2022-12-18T12:30:42.070Z,100843.97
2022-12-18T12:33:49.721Z,100835.41
2022-12-18T12:36:16.390Z,100838.66
2022-12-18T12:38:51.724Z,100837.94
2022-12-18T12:41:45.030Z,100837.16
2022-12-18T12:44:19.654Z,100844.75
2022-12-18T12:46:49.608Z,100837.13
2022-12-18T12:49:20.511Z,100828.41
2022-12-18T12:52:13.420Z,100830.09
2022-12-18T12:54:40.727Z,100825.91
2022-12-18T12:57:12.935Z,100838.91
2022-12-18T12:59:45.847Z,100839.00
2022-12-18T13:02:21.439Z,100828.41
2022-12-18T13:05:02.386Z,100826.59
2022-12-18T13:07:41.644Z,100841.53
2022-12-18T13:10:27.112Z,100845.97
2022-12-18T13:13:04.908Z,100845.97
2022-12-18T13:15:38.316Z,100857.31
2022-12-18T13:18:09.615Z,100852.19
2022-12-18T13:20:41.324Z,100868.72
2022-12-18T13:23:26.268Z,100872.31
2022-12-18T13:26:23.233Z,100864.50
2022-12-18T13:29:07.126Z,100877.59
2022-12-18T13:31:39.960Z,100878.41
2022-12-18T13:34:26.095Z,100879.34
2022-12-18T13:36:56.237Z,100876.72
2022-12-18T13:39:32.677Z,100891.63
2022-12-18T13:42:07.236Z,100892.44
2022-12-18T13:44:40.899Z,100897.69
2022-12-18T13:47:26.853Z,100894.16
2022-12-18T13:49:53.993Z,100888.13
2022-12-18T13:52:25.663Z,100903.88
2022-12-18T13:54:55.094Z,100913.53
2022-12-18T13:57:29.799Z,100904.66
2022-12-18T13:59:57.794Z,100915.28
2022-12-18T14:02:29.818Z,100909.19
2022-12-18T14:04:57.060Z,100884.91
2022-12-18T14:07:25.191Z,100915.34
2022-12-18T14:10:12.194Z,100918.03
2022-12-18T14:13:01.279Z,100919.81
2022-12-18T14:15:35.056Z,100917.97
2022-12-18T14:18:03.784Z,100919.78
2022-12-18T14:20:35.207Z,100919.84
2022-12-18T14:23:04.669Z,100919.09
2022-12-18T14:25:31.981Z,100899.97
2022-12-18T14:28:08.859Z,100914.69
2022-12-18T14:30:41.196Z,100887.72
2022-12-18T14:33:21.435Z,100913.91
2022-12-18T14:35:56.343Z,100920.84
2022-12-18T14:38:32.239Z,100923.47
2022-12-18T14:41:03.299Z,100852.28
2022-12-18T14:43:37.033Z,100924.44
2022-12-18T14:46:06.172Z,100917.41
2022-12-18T14:48:42.184Z,100913.03
2022-12-18T14:51:11.780Z,100904.38
2022-12-18T14:53:53.975Z,100910.47
2022-12-18T14:56:25.074Z,100867.94
2022-12-18T14:59:03.349Z,100910.47
2022-12-18T15:01:39.550Z,100905.34
2022-12-18T15:04:27.164Z,100908.00
2022-12-18T15:07:20.583Z,100917.50
2022-12-18T15:10:15.048Z,100923.75
2022-12-18T15:12:48.117Z,100931.69
2022-12-18T15:15:40.713Z,100949.13
2022-12-18T15:18:14.634Z,100964.88
2022-12-18T15:21:21.726Z,100955.31
2022-12-18T15:23:54.008Z,100950.84
2022-12-18T15:26:23.063Z,100944.75
2022-12-18T15:28:52.598Z,100943.91
2022-12-18T15:31:33.470Z,100956.94
2022-12-18T15:34:25.386Z,100937.91
2022-12-18T15:36:53.122Z,100956.16
2022-12-18T15:39:20.448Z,100961.19
2022-12-18T15:42:06.370Z,100972.66
2022-12-18T15:44:33.805Z,100962.22
2022-12-18T15:47:02.219Z,100961.38
2022-12-18T15:49:30.954Z,100903.97
2022-12-18T15:52:14.915Z,100935.16
2022-12-18T15:55:01.115Z,100959.66
2022-12-18T15:57:28.697Z,100945.69
2022-12-18T16:00:00.227Z,100940.44
2022-12-18T16:02:29.642Z,100915.22
2022-12-18T16:04:59.488Z,100948.25
2022-12-18T16:07:30.328Z,100941.31
2022-12-18T16:10:00.369Z,100947.34
2022-12-18T16:12:29.449Z,100937.84
2022-12-18T16:14:58.064Z,100902.28
2022-12-18T16:17:25.996Z,100934.41
2022-12-18T16:19:57.240Z,100957.00
2022-12-18T16:22:48.629Z,100883.06
2022-12-18T16:25:30.657Z,100957.84
2022-12-18T16:27:59.688Z,100949.84
2022-12-18T16:30:42.583Z,100942.25
2022-12-18T16:33:13.170Z,100940.44
2022-12-18T16:35:42.877Z,100944.78
2022-12-18T16:38:10.401Z,100936.97
2022-12-18T16:40:59.757Z,100939.53
2022-12-18T16:43:27.279Z,100925.69
2022-12-18T16:45:59.562Z,100929.09
2022-12-18T16:48:30.412Z,100930.88
2022-12-18T16:51:04.142Z,100934.31
2022-12-18T16:53:33.612Z,100921.31
2022-12-18T16:56:04.563Z,100916.88
2022-12-18T16:58:34.743Z,100931.66
2022-12-18T17:01:04.159Z,100931.41
2022-12-18T17:03:42.461Z,100931.56
2022-12-18T17:06:11.792Z,100933.19
2022-12-18T17:08:39.418Z,100930.50
2022-12-18T17:11:08.631Z,100930.59
2022-12-18T17:13:36.473Z,100920.25
2022-12-18T17:16:05.647Z,100918.38
2022-12-18T17:18:35.888Z,100929.78
2022-12-18T17:21:05.325Z,100926.25
2022-12-18T17:23:32.733Z,100914.13
2022-12-18T17:26:01.563Z,100935.94
2022-12-18T17:28:29.981Z,100932.31
2022-12-18T17:30:58.380Z,100926.25
2022-12-18T17:33:26.394Z,100913.22
2022-12-18T17:35:56.037Z,100924.56
2022-12-18T17:38:23.789Z,100877.69
2022-12-18T17:40:52.474Z,100928.81
2022-12-18T17:43:20.220Z,100920.97
2022-12-18T17:45:47.735Z,100855.00
2022-12-18T17:48:17.174Z,100918.34
2022-12-18T17:50:48.105Z,100906.22
2022-12-18T17:53:15.990Z,100912.34
2022-12-18T17:55:43.648Z,100927.94
2022-12-18T17:58:12.598Z,100913.16
2022-12-18T18:00:40.650Z,100919.19
2022-12-18T18:03:10.680Z,100908.53
2022-12-18T18:05:42.114Z,100921.69
2022-12-18T18:08:10.899Z,100911.19
2022-12-18T18:10:39.722Z,100922.47
2022-12-18T18:13:39.719Z,100919.97
2022-12-18T18:16:11.352Z,100909.38
2022-12-18T18:18:40.411Z,100906.78
2022-12-18T18:21:09.821Z,100911.94
2022-12-18T18:23:38.460Z,100908.53
2022-12-18T18:26:11.118Z,100901.66
2022-12-18T18:28:38.536Z,100905.91
2022-12-18T18:31:07.791Z,100905.78
2022-12-18T18:33:35.717Z,100906.81
2022-12-18T18:36:06.858Z,100908.34
2022-12-18T18:38:34.630Z,100899.78
2022-12-18T18:41:04.200Z,100908.28
2022-12-18T18:43:33.463Z,100921.66
2022-12-18T18:46:03.568Z,100912.88
2022-12-18T18:48:38.512Z,100908.53
2022-12-18T18:51:12.969Z,100918.97
2022-12-18T18:53:46.762Z,100893.69
2022-12-18T18:59:03.976Z,100915.97
2022-12-18T19:01:31.754Z,100923.06
2022-12-18T19:03:59.380Z,100903.84
2022-12-18T19:06:28.665Z,100914.41
2022-12-18T19:09:00.126Z,100888.22
2022-12-18T19:11:46.110Z,100896.81
2022-12-18T19:14:15.661Z,100896.69
2022-12-18T19:16:45.898Z,100896.59
2022-12-18T19:19:14.277Z,100901.63
2022-12-18T19:21:41.971Z,100878.38
2022-12-18T19:24:10.497Z,100899.00
2022-12-18T19:26:39.185Z,100902.78
2022-12-18T19:29:09.163Z,100892.03
2022-12-18T19:31:37.531Z,100888.66
2022-12-18T19:34:10.883Z,100898.41
2022-12-18T19:36:40.281Z,100893.06
2022-12-18T19:39:14.419Z,100866.97
2022-12-18T19:41:43.183Z,100879.81
2022-12-18T19:44:16.979Z,100869.53
2022-12-18T19:46:46.741Z,100887.75
2022-12-18T19:49:17.691Z,100900.84
2022-12-18T19:51:46.306Z,100901.75
2022-12-18T19:54:17.228Z,100885.00
2022-12-18T19:56:45.572Z,100882.22
2022-12-18T19:59:13.583Z,100874.38
2022-12-18T20:01:41.898Z,100866.63
2022-12-18T20:04:12.067Z,100854.50
2022-12-18T20:06:54.675Z,100885.81
2022-12-18T20:09:24.122Z,100873.59
2022-12-18T20:11:52.411Z,100870.09
2022-12-18T20:14:23.383Z,100869.13
2022-12-18T20:16:53.387Z,100836.03
2022-12-18T20:19:22.782Z,100856.97
2022-12-18T20:21:50.526Z,100856.06
2022-12-18T20:24:17.852Z,100842.00
2022-12-18T20:26:45.341Z,100855.16
2022-12-18T20:29:14.224Z,100859.97
2022-12-18T20:31:41.713Z,100859.16
2022-12-18T20:34:08.548Z,100854.16
2022-12-18T20:36:37.666Z,100851.38
2022-12-18T20:39:08.858Z,100828.72
2022-12-18T20:41:39.389Z,100844.41
2022-12-18T20:44:22.977Z,100801.91
2022-12-18T20:46:56.986Z,100842.56
2022-12-18T20:49:25.742Z,100839.34
2022-12-18T20:51:54.845Z,100832.94
2022-12-18T20:54:23.646Z,100840.69
2022-12-18T20:56:51.921Z,100829.66
2022-12-18T20:59:19.933Z,100818.91
2022-12-18T21:01:48.880Z,100838.59
2022-12-18T21:04:18.664Z,100833.69
2022-12-18T21:06:52.334Z,100829.31
2022-12-18T21:09:21.891Z,100810.22
2022-12-18T21:12:07.963Z,100836.31
2022-12-18T21:14:37.096Z,100833.59
2022-12-18T21:17:04.831Z,100828.56
2022-12-18T21:19:32.053Z,100817.19
2022-12-18T21:21:59.082Z,100814.56
2022-12-18T21:24:26.664Z,100826.66
2022-12-18T21:26:56.034Z,100821.31
2022-12-18T21:29:25.292Z,100809.19
2022-12-18T21:31:54.075Z,100803.88
2022-12-18T21:34:26.810Z,100820.34
2022-12-18T21:36:55.397Z,100819.25
2022-12-18T21:39:22.895Z,100801.97
2022-12-18T21:42:09.407Z,100788.97
2022-12-18T21:44:41.643Z,100820.22
2022-12-18T21:47:22.112Z,100809.03
2022-12-18T21:49:53.471Z,100797.63
2022-12-18T21:52:28.334Z,100763.66
2022-12-18T21:55:04.789Z,100796.31
2022-12-18T21:57:35.923Z,100784.97
2022-12-18T22:00:03.896Z,100822.69
2022-12-18T22:02:30.866Z,100812.03
2022-12-18T22:04:57.755Z,100804.31
2022-12-18T22:07:24.543Z,100805.38
2022-12-18T22:09:51.266Z,100773.09
2022-12-18T22:12:35.627Z,100790.38
2022-12-18T22:15:04.922Z,100784.34
2022-12-18T22:17:32.070Z,100774.56
2022-12-18T22:19:58.849Z,100779.66
2022-12-18T22:22:25.936Z,100774.59
2022-12-18T22:24:52.681Z,100769.00
2022-12-18T22:27:19.597Z,100780.41
2022-12-18T22:30:04.469Z,100743.34
2022-12-18T22:32:35.970Z,100770.91
2022-12-18T22:35:09.528Z,100751.75
2022-12-18T22:37:40.911Z,100768.25
2022-12-18T22:40:08.630Z,100767.38
2022-12-18T22:42:35.581Z,100762.00
2022-12-18T22:45:02.362Z,100737.38
2022-12-18T22:47:30.507Z,100745.78
2022-12-18T22:49:58.223Z,100737.38
2022-12-18T22:52:25.396Z,100738.31
2022-12-18T22:54:53.586Z,100728.84
2022-12-18T22:57:21.959Z,100750.25
2022-12-18T22:59:52.138Z,100729.63
2022-12-18T23:02:19.755Z,100745.41
2022-12-18T23:04:47.887Z,100737.97
2022-12-18T23:07:15.424Z,100726.84
2022-12-18T23:09:42.219Z,100738.78
2022-12-18T23:12:15.490Z,100722.06
2022-12-18T23:14:42.477Z,100706.28
2022-12-18T23:17:09.271Z,100727.41
2022-12-18T23:19:36.555Z,100718.47
2022-12-18T23:22:07.253Z,100715.75
2022-12-18T23:24:36.885Z,100715.94
2022-12-18T23:27:03.701Z,100718.56
2022-12-18T23:29:34.100Z,100722.28
2022-12-18T23:32:00.818Z,100685.59
2022-12-18T23:34:27.730Z,100704.47
2022-12-18T23:36:56.242Z,100687.00
2022-12-18T23:39:29.720Z,100694.88
2022-12-18T23:42:00.284Z,100693.88
2022-12-18T23:44:27.148Z,100686.03
2022-12-18T23:46:53.950Z,100676.63
2022-12-18T23:49:20.739Z,100674.00
2022-12-18T23:51:47.498Z,100673.81
2022-12-18T23:54:14.451Z,100677.38
2022-12-18T23:56:41.301Z,100670.25
2022-12-18T23:59:08.021Z,100684.78
